createdAt,value
2023-07-01T00:00:57.348Z,72.33
2023-07-01T00:03:59.545Z,72.06
2023-07-01T00:07:01.687Z,72.37
2023-07-01T00:10:03.827Z,72.59
2023-07-01T00:13:05.789Z,73.18
2023-07-01T00:16:07.861Z,73.81
2023-07-01T00:19:09.912Z,74.53
2023-07-01T00:22:11.928Z,74.81
2023-07-01T00:25:14.038Z,75.47
2023-07-01T00:28:16.051Z,75.35
2023-07-01T00:31:18.140Z,75.42
2023-07-01T00:34:20.252Z,76.16
2023-07-01T00:37:22.312Z,75.40
2023-07-01T00:40:24.338Z,75.49
2023-07-01T00:43:26.383Z,75.77
2023-07-01T00:46:28.434Z,75.96
2023-07-01T00:49:31.074Z,76.21
2023-07-01T00:52:33.224Z,75.89
2023-07-01T00:55:35.224Z,76.07
2023-07-01T00:58:37.328Z,77.10
2023-07-01T01:01:43.382Z,77.32
2023-07-01T01:05:02.739Z,77.22
2023-07-01T01:08:21.911Z,76.63
2023-07-01T01:11:26.813Z,76.19
2023-07-01T01:14:29.599Z,75.79
2023-07-01T01:17:36.993Z,75.50
2023-07-01T01:20:40.696Z,75.17
2023-07-01T01:23:53.356Z,74.84
2023-07-01T01:27:00.540Z,74.63
2023-07-01T01:30:02.472Z,74.67
2023-07-01T01:33:05.241Z,74.74
2023-07-01T01:36:16.434Z,75.20
2023-07-01T01:39:23.056Z,75.03
2023-07-01T01:42:31.706Z,74.89
2023-07-01T01:45:34.650Z,74.78
2023-07-01T01:48:38.833Z,74.89
2023-07-01T01:51:42.283Z,74.95
2023-07-01T01:54:47.041Z,75.17
2023-07-01T01:57:50.587Z,75.15
2023-07-01T02:00:52.753Z,75.40
2023-07-01T02:03:54.983Z,75.64
2023-07-01T02:06:57.244Z,75.32
2023-07-01T02:09:59.402Z,75.18
2023-07-01T02:13:02.267Z,74.76
2023-07-01T02:16:04.604Z,74.87
2023-07-01T02:19:06.640Z,75.06
2023-07-01T02:22:08.674Z,75.33
2023-07-01T02:25:11.603Z,75.63
2023-07-01T02:28:14.860Z,75.66
2023-07-01T02:31:19.435Z,76.53
2023-07-01T02:34:28.889Z,77.11
2023-07-01T02:37:30.924Z,77.56
2023-07-01T02:40:32.878Z,78.10
2023-07-01T02:43:35.278Z,77.88
2023-07-01T02:46:37.465Z,77.91
2023-07-01T02:49:41.536Z,77.86
2023-07-01T02:52:44.092Z,78.00
2023-07-01T02:55:46.755Z,78.21
2023-07-01T02:58:48.916Z,78.77
2023-07-01T03:01:51.250Z,77.96
2023-07-01T03:04:53.277Z,77.44
2023-07-01T03:07:56.425Z,77.45
2023-07-01T03:10:58.470Z,77.29
2023-07-01T03:14:00.478Z,77.34
2023-07-01T03:17:02.609Z,77.03
2023-07-01T03:20:07.265Z,77.11
2023-07-01T03:23:09.279Z,77.05
2023-07-01T03:26:11.391Z,76.71
2023-07-01T03:29:13.457Z,76.58
2023-07-01T03:32:15.593Z,76.59
2023-07-01T03:35:17.709Z,76.26
2023-07-01T03:38:19.709Z,75.98
2023-07-01T03:41:21.692Z,75.69
2023-07-01T03:44:23.751Z,75.53
2023-07-01T03:47:25.688Z,75.76
2023-07-01T03:50:27.572Z,75.88
2023-07-01T03:53:29.498Z,75.50
2023-07-01T03:56:31.442Z,75.47
2023-07-01T03:59:33.326Z,75.33
2023-07-01T04:02:38.870Z,75.89
2023-07-01T04:05:40.851Z,76.67
2023-07-01T04:08:42.779Z,76.65
2023-07-01T04:11:44.783Z,76.80
2023-07-01T04:14:46.796Z,77.21
2023-07-01T04:17:52.606Z,77.03
2023-07-01T04:20:55.115Z,76.88
2023-07-01T04:23:57.024Z,76.80
2023-07-01T04:26:58.985Z,76.61
2023-07-01T04:30:00.961Z,76.39
2023-07-01T04:33:03.003Z,76.33
2023-07-01T04:36:05.096Z,76.37
2023-07-01T04:39:07.108Z,76.33
2023-07-01T04:42:09.117Z,76.77
2023-07-01T04:45:11.302Z,76.75
2023-07-01T04:48:13.413Z,77.30
2023-07-01T04:51:15.357Z,77.00
2023-07-01T04:54:17.315Z,76.69
2023-07-01T04:57:19.388Z,76.87
2023-07-01T05:00:22.538Z,77.31
2023-07-01T05:03:24.661Z,77.57
2023-07-01T05:06:26.703Z,78.00
2023-07-01T05:09:28.732Z,77.39
2023-07-01T05:12:30.674Z,76.99
2023-07-01T05:15:32.604Z,76.80
2023-07-01T05:18:34.542Z,76.53
2023-07-01T05:21:36.785Z,76.12
2023-07-01T05:24:38.761Z,75.86
2023-07-01T05:27:40.789Z,75.71
2023-07-01T05:30:42.774Z,75.85
2023-07-01T05:33:46.316Z,75.96
2023-07-01T05:36:48.280Z,76.24
2023-07-01T05:39:50.298Z,75.75
2023-07-01T05:42:52.288Z,75.63
2023-07-01T05:45:54.586Z,76.18
2023-07-01T05:48:56.584Z,76.22
2023-07-01T05:51:58.686Z,76.04
2023-07-01T05:55:00.744Z,75.58
2023-07-01T05:58:02.773Z,76.64
2023-07-01T06:01:04.798Z,75.60
2023-07-01T06:04:06.948Z,77.10
2023-07-01T06:07:08.969Z,76.33
2023-07-01T06:10:11.192Z,77.44
2023-07-01T06:13:13.112Z,77.86
2023-07-01T06:16:16.152Z,78.41
2023-07-01T06:19:18.146Z,80.89
2023-07-01T06:22:20.127Z,80.18
2023-07-01T06:25:22.196Z,82.01
2023-07-01T06:28:24.134Z,81.28
2023-07-01T06:31:26.291Z,81.94
2023-07-01T06:34:28.326Z,82.58
2023-07-01T06:37:30.345Z,83.07
2023-07-01T06:40:32.417Z,83.17
2023-07-01T06:43:38.419Z,81.51
2023-07-01T06:46:40.402Z,81.16
2023-07-01T06:49:42.348Z,80.15
2023-07-01T06:52:44.341Z,79.21
2023-07-01T06:55:46.296Z,78.76
2023-07-01T06:58:48.300Z,77.82
2023-07-01T07:01:50.299Z,75.96
2023-07-01T07:04:53.629Z,75.04
2023-07-01T07:07:55.711Z,72.68
2023-07-01T07:10:57.669Z,69.33
2023-07-01T07:13:59.574Z,67.58
2023-07-01T07:17:01.600Z,66.57
2023-07-01T07:20:03.805Z,65.60
2023-07-01T07:23:07.563Z,62.61
2023-07-01T07:26:09.589Z,62.88
2023-07-01T07:29:11.578Z,62.17
2023-07-01T07:32:13.550Z,62.29
2023-07-01T07:35:15.570Z,61.72
2023-07-01T07:38:17.584Z,61.66
2023-07-01T07:41:19.545Z,61.82
2023-07-01T07:44:21.569Z,61.89
2023-07-01T07:47:23.545Z,61.62
2023-07-01T07:50:25.545Z,61.75
2023-07-01T07:53:28.093Z,62.05
2023-07-01T07:56:30.108Z,60.81
2023-07-01T07:59:32.389Z,59.20
2023-07-01T08:02:34.306Z,59.30
2023-07-01T08:05:36.277Z,56.91
2023-07-01T08:08:38.281Z,56.51
2023-07-01T08:11:40.319Z,56.39
2023-07-01T08:14:42.272Z,57.23
2023-07-01T08:17:44.368Z,55.00
2023-07-01T08:20:47.537Z,54.93
2023-07-01T08:23:49.882Z,53.10
2023-07-01T08:26:51.900Z,52.45
2023-07-01T08:29:53.880Z,51.02
2023-07-01T08:32:56.074Z,51.19
2023-07-01T08:35:58.458Z,51.08
2023-07-01T08:39:00.530Z,51.11
2023-07-01T08:42:06.973Z,52.38
2023-07-01T08:45:09.509Z,53.14
2023-07-01T08:48:11.732Z,52.23
2023-07-01T08:51:25.810Z,52.47
2023-07-01T08:54:28.182Z,51.61
2023-07-01T08:57:30.233Z,52.79
2023-07-01T09:00:32.923Z,53.81
2023-07-01T09:03:38.851Z,54.31
2023-07-01T09:06:40.827Z,49.55
2023-07-01T09:09:45.347Z,46.03
2023-07-01T09:12:47.385Z,45.85
2023-07-01T09:15:50.239Z,45.11
2023-07-01T09:19:06.988Z,45.06
2023-07-01T09:22:09.972Z,46.53
2023-07-01T09:25:27.539Z,48.24
2023-07-01T09:28:32.510Z,48.62
2023-07-01T09:31:53.515Z,48.21
2023-07-01T09:34:58.265Z,48.26
2023-07-01T09:38:03.421Z,48.25
2023-07-01T09:41:17.964Z,48.68
2023-07-01T09:44:20.723Z,49.60
2023-07-01T09:47:26.638Z,49.02
2023-07-01T09:50:30.950Z,49.80
2023-07-01T09:53:36.847Z,51.51
2023-07-01T09:56:39.391Z,52.64
2023-07-01T09:59:41.432Z,52.98
2023-07-01T10:02:45.415Z,52.20
2023-07-01T10:05:52.446Z,51.55
2023-07-01T10:08:54.422Z,50.91
2023-07-01T10:11:58.484Z,51.35
2023-07-01T10:15:01.105Z,50.88
2023-07-01T10:18:03.491Z,51.17
2023-07-01T10:21:23.878Z,52.43
2023-07-01T10:24:39.298Z,52.70
2023-07-01T10:27:41.273Z,53.19
2023-07-01T10:30:43.411Z,54.16
2023-07-01T10:33:45.405Z,55.43
2023-07-01T10:37:26.668Z,56.88
2023-07-01T10:40:31.578Z,56.77
2023-07-01T10:43:38.253Z,57.77
2023-07-01T10:46:40.427Z,58.59
2023-07-01T10:50:01.986Z,58.63
2023-07-01T10:53:04.157Z,58.71
2023-07-01T10:56:15.435Z,58.58
2023-07-01T10:59:30.205Z,59.19
2023-07-01T11:02:40.517Z,59.67
2023-07-01T11:06:02.372Z,59.69
2023-07-01T11:09:05.185Z,59.52
2023-07-01T11:12:10.126Z,59.32
2023-07-01T11:15:20.219Z,60.38
2023-07-01T11:18:22.540Z,60.37
2023-07-01T11:21:26.972Z,60.36
2023-07-01T11:24:31.105Z,60.20
2023-07-01T11:27:33.330Z,59.51
2023-07-01T11:30:35.356Z,59.50
2023-07-01T11:33:37.328Z,59.81
2023-07-01T11:36:49.674Z,59.46
2023-07-01T11:39:52.734Z,59.46
2023-07-01T11:42:54.831Z,59.45
2023-07-01T11:45:56.959Z,59.37
2023-07-01T11:48:59.277Z,58.12
2023-07-01T11:52:03.618Z,57.97
2023-07-01T11:55:06.585Z,58.21
2023-07-01T11:58:30.604Z,57.11
2023-07-01T12:01:33.349Z,56.15
2023-07-01T12:04:39.144Z,56.17
2023-07-01T12:07:55.954Z,54.91
2023-07-01T12:10:58.026Z,57.09
2023-07-01T12:14:17.785Z,56.02
2023-07-01T12:17:30.844Z,54.83
2023-07-01T12:20:32.904Z,56.01
2023-07-01T12:23:45.028Z,55.46
2023-07-01T12:26:52.165Z,54.30
2023-07-01T12:29:54.198Z,52.03
2023-07-01T12:32:56.225Z,50.87
2023-07-01T12:35:58.875Z,50.89
2023-07-01T12:39:00.976Z,49.63
2023-07-01T12:42:03.308Z,50.02
2023-07-01T12:45:07.462Z,50.85
2023-07-01T12:48:09.526Z,50.96
2023-07-01T12:51:11.643Z,51.41
2023-07-01T12:57:18.728Z,50.57
2023-07-01T13:00:21.350Z,50.96
2023-07-01T13:03:23.346Z,51.09
2023-07-01T13:06:31.824Z,52.53
2023-07-01T13:09:44.837Z,52.69
2023-07-01T13:12:47.071Z,53.27
2023-07-01T13:15:54.234Z,50.40
2023-07-01T13:18:59.180Z,49.29
2023-07-01T13:22:01.831Z,48.03
2023-07-01T13:25:05.303Z,46.54
2023-07-01T13:28:07.561Z,47.54
2023-07-01T13:31:09.594Z,49.05
2023-07-01T13:34:12.619Z,48.22
2023-07-01T13:37:19.343Z,48.59
2023-07-01T13:40:24.405Z,48.70
2023-07-01T13:43:26.995Z,47.99
2023-07-01T13:46:40.763Z,48.13
2023-07-01T13:49:44.233Z,48.88
2023-07-01T13:52:46.258Z,48.77
2023-07-01T13:55:49.789Z,48.38
2023-07-01T13:58:51.939Z,48.17
2023-07-01T14:02:05.282Z,49.38
2023-07-01T14:05:08.169Z,48.61
2023-07-01T14:08:11.342Z,48.09
2023-07-01T14:11:22.884Z,45.96
2023-07-01T14:14:34.011Z,45.12
2023-07-01T14:17:36.263Z,45.86
2023-07-01T14:20:45.052Z,46.02
2023-07-01T14:23:55.517Z,45.72
2023-07-01T14:27:01.642Z,46.03
2023-07-01T14:30:15.288Z,44.48
2023-07-01T14:33:19.921Z,45.22
2023-07-01T14:36:30.584Z,46.00
2023-07-01T14:39:49.633Z,45.92
2023-07-01T14:42:51.989Z,44.89
2023-07-01T14:45:54.561Z,44.32
2023-07-01T14:48:57.470Z,44.77
2023-07-01T14:51:59.668Z,44.23
2023-07-01T14:55:02.193Z,43.64
2023-07-01T14:58:04.425Z,43.86
2023-07-01T15:01:06.951Z,44.49
2023-07-01T15:04:09.571Z,46.17
2023-07-01T15:07:11.895Z,45.96
2023-07-01T15:10:14.086Z,46.45
2023-07-01T15:13:16.185Z,46.38
2023-07-01T15:16:20.364Z,47.76
2023-07-01T15:19:22.436Z,47.41
2023-07-01T15:22:24.400Z,47.07
2023-07-01T15:25:26.726Z,47.09
2023-07-01T15:28:28.947Z,48.00
2023-07-01T15:31:30.946Z,47.72
2023-07-01T15:34:33.097Z,49.37
2023-07-01T15:37:35.277Z,49.79
2023-07-01T15:40:37.323Z,49.66
2023-07-01T15:43:42.540Z,49.91
2023-07-01T15:46:44.902Z,49.33
2023-07-01T15:49:47.169Z,49.06
2023-07-01T15:52:49.236Z,49.50
2023-07-01T15:55:53.915Z,49.42
2023-07-01T15:58:56.447Z,48.92
2023-07-01T16:01:59.389Z,49.88
2023-07-01T16:05:01.794Z,50.30
2023-07-01T16:08:04.461Z,51.83
2023-07-01T16:11:22.759Z,51.46
2023-07-01T16:14:24.819Z,50.84
2023-07-01T16:17:31.272Z,51.25
2023-07-01T16:20:33.406Z,50.99
2023-07-01T16:23:38.930Z,50.87
2023-07-01T16:26:43.946Z,50.70
2023-07-01T16:29:46.982Z,51.96
2023-07-01T16:32:54.026Z,52.24
2023-07-01T16:35:55.919Z,52.76
2023-07-01T16:39:01.524Z,53.79
2023-07-01T16:42:04.600Z,53.87
2023-07-01T16:45:13.376Z,54.72
2023-07-01T16:48:24.510Z,54.84
2023-07-01T16:51:27.236Z,55.20
2023-07-01T16:54:35.998Z,56.22
2023-07-01T16:57:37.947Z,56.50
2023-07-01T17:00:39.993Z,56.41
2023-07-01T17:03:45.976Z,57.36
2023-07-01T17:06:48.467Z,60.42
2023-07-01T17:09:53.478Z,64.22
2023-07-01T17:12:55.778Z,65.90
2023-07-01T17:16:00.263Z,67.49
2023-07-01T17:19:02.799Z,67.36
2023-07-01T17:22:05.276Z,67.73
2023-07-01T17:25:07.978Z,68.42
2023-07-01T17:28:10.197Z,68.87
2023-07-01T17:31:12.380Z,69.71
2023-07-01T17:34:19.783Z,71.31
2023-07-01T17:37:22.241Z,73.84
2023-07-01T17:40:24.910Z,76.03
2023-07-01T17:43:27.067Z,77.59
2023-07-01T17:46:29.680Z,79.35
2023-07-01T17:49:31.903Z,81.50
2023-07-01T17:52:37.006Z,82.52
2023-07-01T17:55:39.393Z,82.06
2023-07-01T17:58:42.078Z,85.71
2023-07-01T18:01:44.646Z,88.59
2023-07-01T18:04:47.170Z,92.35
2023-07-01T18:07:49.685Z,91.96
2023-07-01T18:10:51.890Z,95.16
2023-07-01T18:13:54.303Z,96.18
2023-07-01T18:16:56.724Z,97.79
2023-07-01T18:19:58.730Z,95.68
2023-07-01T18:23:01.125Z,95.73
2023-07-01T18:26:04.301Z,95.68
2023-07-01T18:29:06.668Z,99.40
2023-07-01T18:32:09.398Z,99.52
2023-07-01T18:35:15.714Z,100.00
2023-07-01T18:38:17.923Z,98.86
2023-07-01T18:41:20.300Z,98.67
2023-07-01T18:44:23.916Z,100.00
2023-07-01T18:47:26.600Z,100.00
2023-07-01T18:50:28.797Z,100.00
2023-07-01T18:53:35.353Z,100.00
2023-07-01T18:56:37.646Z,100.00
2023-07-01T18:59:40.049Z,100.00
2023-07-01T19:02:42.539Z,100.00
2023-07-01T19:05:44.767Z,100.00
2023-07-01T19:08:47.493Z,100.00
2023-07-01T19:11:49.726Z,100.00
2023-07-01T19:14:51.885Z,100.00
2023-07-01T19:17:55.695Z,100.00
2023-07-01T19:21:00.038Z,100.00
2023-07-01T19:24:02.513Z,100.00
2023-07-01T19:27:05.282Z,100.00
2023-07-01T19:30:14.218Z,100.00
2023-07-01T19:33:19.925Z,100.00
2023-07-01T19:36:22.829Z,100.00
2023-07-01T19:39:25.475Z,100.00
2023-07-01T19:42:27.801Z,100.00
2023-07-01T19:45:30.374Z,100.00
2023-07-01T19:48:34.941Z,100.00
2023-07-01T19:51:37.270Z,100.00
2023-07-01T19:54:39.806Z,100.00
2023-07-01T19:57:42.375Z,100.00
2023-07-01T20:00:44.575Z,100.00
2023-07-01T20:03:47.759Z,100.00
2023-07-01T20:06:50.253Z,100.00
2023-07-01T20:09:53.001Z,100.00
2023-07-01T20:12:55.276Z,100.00
2023-07-01T20:15:57.903Z,100.00
2023-07-01T20:19:00.751Z,100.00
2023-07-01T20:22:03.038Z,100.00
2023-07-01T20:25:05.452Z,100.00
2023-07-01T20:28:08.350Z,100.00
2023-07-01T20:31:10.685Z,100.00
2023-07-01T20:34:13.837Z,100.00
2023-07-01T20:37:18.867Z,100.00
2023-07-01T20:40:24.017Z,100.00
2023-07-01T20:43:26.682Z,100.00
2023-07-01T20:46:29.199Z,100.00
2023-07-01T20:49:31.492Z,100.00
2023-07-01T20:52:33.748Z,100.00
2023-07-01T20:55:35.836Z,100.00
2023-07-01T20:58:37.875Z,100.00
2023-07-01T21:01:41.178Z,100.00
2023-07-01T21:04:43.310Z,100.00
2023-07-01T21:07:45.399Z,100.00
2023-07-01T21:10:47.442Z,100.00
2023-07-01T21:13:49.379Z,100.00
2023-07-01T21:16:51.659Z,100.00
2023-07-01T21:23:17.469Z,100.00
2023-07-01T21:26:24.862Z,100.00
2023-07-01T21:29:27.586Z,100.00
2023-07-01T21:32:29.530Z,100.00
2023-07-01T21:35:34.550Z,100.00
2023-07-01T21:38:36.520Z,100.00
2023-07-01T21:41:42.652Z,100.00
2023-07-01T21:44:44.714Z,100.00
2023-07-01T21:47:46.651Z,100.00
2023-07-01T21:51:00.235Z,100.00
2023-07-01T21:54:03.237Z,100.00
2023-07-01T21:57:05.702Z,100.00
2023-07-01T22:00:14.926Z,100.00
2023-07-01T22:03:17.852Z,100.00
2023-07-01T22:06:20.992Z,100.00
2023-07-01T22:09:23.153Z,100.00
2023-07-01T22:12:25.124Z,100.00
2023-07-01T22:15:27.142Z,100.00
2023-07-01T22:18:29.222Z,100.00
2023-07-01T22:21:31.737Z,100.00
2023-07-01T22:24:34.090Z,100.00
2023-07-01T22:27:36.151Z,100.00
2023-07-01T22:30:38.208Z,100.00
2023-07-01T22:33:40.175Z,100.00
2023-07-01T22:36:43.625Z,100.00
2023-07-01T22:39:45.571Z,100.00
2023-07-01T22:42:47.548Z,100.00
2023-07-01T22:45:49.879Z,100.00
2023-07-01T22:48:51.923Z,100.00
2023-07-01T22:51:53.973Z,100.00
2023-07-01T22:54:56.002Z,100.00
2023-07-01T22:57:58.104Z,100.00
2023-07-01T23:01:00.064Z,100.00
2023-07-01T23:04:02.380Z,100.00
2023-07-01T23:07:04.759Z,100.00
2023-07-01T23:10:08.083Z,100.00
2023-07-01T23:13:10.135Z,100.00
2023-07-01T23:16:12.238Z,100.00
2023-07-01T23:19:14.221Z,100.00
2023-07-01T23:22:16.283Z,100.00
2023-07-01T23:25:18.325Z,100.00
2023-07-01T23:28:20.339Z,100.00
2023-07-01T23:31:24.894Z,100.00
2023-07-01T23:34:35.599Z,100.00
2023-07-01T23:37:48.970Z,100.00
2023-07-01T23:40:51.299Z,100.00
2023-07-01T23:43:53.521Z,100.00
2023-07-01T23:46:55.482Z,100.00
2023-07-01T23:49:57.498Z,100.00
2023-07-01T23:52:59.559Z,100.00
2023-07-01T23:56:01.589Z,100.00
2023-07-01T23:59:03.593Z,100.00
